King of Scandinavia — OVOL2 — position and weather

sailwx.info

Track history (hours):
 
Tides and Currents Weather Stations Pressure Air Temp Water Temp Dewpoint Dewpoint Depression Visibility Wind Speed Wind Dir Waves Ship Positions

King of Scandinavia

Ship's website: http://www.dfds.co.uk/DSW/EN/OnBoard/na/KING.htm

Last reported at 2017-May-29 10:58 UTC. Time now 2017-May-29 11:17 UTC.
Position N 52°28' E 004°35'.

Length 166 m; beam 27.6 m; draft 6.2 m.

Type: Ship. MMSI: 220449000.

Date/timePositionNaut miles runAvg speedWind from/ knotsBaromVisibWave heightAir tempDewpointWater temp
2017-May-29 10:58N 52°28' E 004°35'0 0.0
2017-May-29 10:28N 52°28' E 004°35'0 0.0
2017-May-29 09:58N 52°28' E 004°35'0 0.0
2017-May-29 09:28N 52°28' E 004°35'0 0.0
2017-May-29 08:58N 52°28' E 004°35'0 0.0
2017-May-29 08:28N 52°28' E 004°35'0 0.0
2017-May-29 07:58N 52°28' E 004°35'0 0.4
2017-May-29 07:30N 52°28' E 004°35'5 9.1
2017-May-29 07:01N 52°29' E 004°28'815.8
2017-May-29 06:31N 52°35' E 004°19'816.0
2017-May-29 06:00N 52°41' E 004°10'816.3
2017-May-29 05:30N 52°46' E 003°60'916.4
2017-May-29 04:59N 52°52' E 003°49'1016.8
2017-May-29 04:25N 52°58' E 003°37'716.7
2017-May-29 03:59N 53°02' E 003°27'816.6
2017-May-29 03:30N 53°07' E 003°17'917.4
2017-May-29 03:00N 53°13' E 003°06'10717.3
2017-May-28 20:48N 54°16' E 000°39'518.3
2017-May-28 20:30N 54°19' E 000°31'918.5
2017-May-28 20:01N 54°23' E 000°18'918.6
2017-May-28 19:30N 54°28' E 000°04'1020.1
2017-May-28 19:00N 54°33' W 000°11'1020.6
2017-May-28 18:31N 54°39' W 000°25'2520.2
2017-May-28 17:15N 54°53' W 001°02'519.5
2017-May-28 17:00N 54°56' W 001°09'1019.5
2017-May-28 16:31N 55°01' W 001°23'2 4.9
2017-May-28 16:00N 54°59' W 001°27'0 0.0
2017-May-28 15:30N 54°59' W 001°27'0 0.0
2017-May-28 15:01N 54°59' W 001°27'0 0.0
2017-May-28 14:00N 54°59' W 001°27'0 0.0
2017-May-28 13:30N 54°59' W 001°27'0 0.0
2017-May-28 13:00N 54°59' W 001°27'0 0.0
2017-May-28 12:28N 54°59' W 001°27'0 0.0
2017-May-28 11:58N 54°59' W 001°27'0 0.0
2017-May-28 11:28N 54°59' W 001°27'0 0.0
2017-May-28 11:00N 54°59' W 001°27'0 0.0
2017-May-28 10:21N 54°59' W 001°27'0 0.0
2017-May-28 09:54N 54°59' W 001°27'0 0.0
2017-May-28 09:24N 54°59' W 001°27'0 0.0
2017-May-28 08:54N 54°59' W 001°27'0 0.0
2017-May-28 08:25N 54°59' W 001°27'0 0.1
2017-May-28 08:00N 54°59' W 001°27'510.0
2017-May-28 07:31N 54°60' W 001°18'918.2
2017-May-28 07:00N 54°55' W 001°04'3117.2
2017-May-28 05:13N 54°38' W 000°20'315.4
2017-May-28 05:01N 54°37' W 000°15'714.7
2017-May-28 04:30N 54°32' W 000°05'815.8
2017-May-28 04:00N 54°28' E 000°06'816.0
2017-May-28 03:31N 54°24' E 000°18'714.3
2017-May-28 03:00N 54°20' E 000°29'12916.4
2017-May-27 19:09N 53°04' E 003°24'214.2
2017-May-27 18:59N 53°03' E 003°26'714.5
2017-May-27 18:30N 52°58' E 003°35'714.9
2017-May-27 18:00N 52°53' E 003°44'815.1
2017-May-27 17:30N 52°48' E 003°54'714.8
2017-May-27 17:00N 52°43' E 004°03'714.8
2017-May-27 16:30N 52°39' E 004°13'715.0
2017-May-27 16:00N 52°34' E 004°22'815.1
2017-May-27 15:30N 52°28' E 004°31'3 5.0
2017-May-27 15:01N 52°28' E 004°35'0 0.0
2017-May-27 13:59N 52°28' E 004°35'0 0.0
2017-May-27 13:29N 52°28' E 004°35'0 0.0
2017-May-27 12:59N 52°28' E 004°35'0 0.0
2017-May-27 12:29N 52°28' E 004°35'0 0.0
2017-May-27 11:59N 52°28' E 004°35'0 0.0
2017-May-27 11:29N 52°28' E 004°35'0 0.0
2017-May-27 10:59N 52°28' E 004°35'0 0.0
2017-May-27 10:29N 52°28' E 004°35'0 0.0
2017-May-27 09:59N 52°28' E 004°35'0 0.0
2017-May-27 09:26N 52°28' E 004°35'0 0.0
2017-May-27 08:59N 52°28' E 004°35'0 0.0
2017-May-27 08:29N 52°28' E 004°35'0 0.0
2017-May-27 07:59N 52°28' E 004°35'0 0.5
2017-May-27 07:30N 52°28' E 004°35'714.6
2017-May-27 07:00N 52°32' E 004°25'918.1
2017-May-27 06:30N 52°38' E 004°14'918.4
2017-May-27 06:00N 52°43' E 004°01'918.2
2017-May-27 05:30N 52°49' E 003°51'918.2
2017-May-27 05:00N 52°55' E 003°39'918.0
2017-May-27 04:29N 53°01' E 003°27'5517.2
2017-May-27 01:17N 53°38' E 002°18'4717.0
2017-May-26 22:32N 54°04' E 001°12'117.4
2017-May-26 22:30N 54°04' E 001°11'917.5
2017-May-26 22:00N 54°09' E 000°59'917.7
2017-May-26 21:30N 54°14' E 000°46'917.9
2017-May-26 21:00N 54°19' E 000°33'918.0
2017-May-26 20:30N 54°23' E 000°20'918.3
2017-May-26 20:00N 54°28' E 000°06'918.4
2017-May-26 19:30N 54°33' W 000°07'918.8
2017-May-26 19:00N 54°38' W 000°21'3019.2
2017-May-26 17:28N 54°54' W 001°04'919.2
2017-May-26 17:01N 54°58' W 001°17'611.6
2017-May-26 16:30N 54°60' W 001°27'0 0.2
2017-May-26 16:00N 54°59' W 001°27'0 0.0
2017-May-26 15:29N 54°59' W 001°27'0 0.0
2017-May-26 14:47N 54°59' W 001°27'0 0.0
2017-May-26 14:30N 54°59' W 001°27'0 0.0
2017-May-26 13:29N 54°59' W 001°27'0 0.0
2017-May-26 12:59N 54°59' W 001°27'0 0.0
2017-May-26 12:23N 54°59' W 001°27'0 0.0
2017-May-26 11:59N 54°59' W 001°27'0 0.0
2017-May-26 11:29N 54°59' W 001°27'0 0.0
2017-May-26 10:59N 54°59' W 001°27'0 0.0
2017-May-26 10:29N 54°59' W 001°27'0 0.0
2017-May-26 09:59N 54°59' W 001°27'0 0.0
2017-May-26 09:29N 54°59' W 001°27'0 0.0
2017-May-26 09:01N 54°59' W 001°27'0 0.0
2017-May-26 08:30N 54°59' W 001°27'1 1.0
2017-May-26 08:00N 54°60' W 001°27'4 8.7
2017-May-26 07:31N 55°00' W 001°19'713.3
2017-May-26 07:01N 54°56' W 001°10'917.3
2017-May-26 06:30N 54°51' W 000°57'917.9
2017-May-26 06:00N 54°47' W 000°44'1916.8
2017-May-26 04:52N 54°37' W 000°16'614.7
2017-May-26 04:27N 54°34' W 000°07'613.6
2017-May-26 04:01N 54°30' E 000°02'713.7
2017-May-26 03:30N 54°26' E 000°12'713.9
2017-May-26 03:00N 54°22' E 000°21'814.3
2017-May-26 02:28N 54°18' E 000°33'714.7
2017-May-26 02:00N 54°14' E 000°42'14017.1
2017-May-25 17:50N 52°52' E 003°52'516.8
2017-May-25 17:30N 52°49' E 003°59'917.4
2017-May-25 17:00N 52°42' E 004°08'917.5
2017-May-25 16:30N 52°36' E 004°19'917.3
2017-May-25 16:00N 52°30' E 004°29'4 8.5
2017-May-25 15:30N 52°28' E 004°35'0 0.0
2017-May-25 15:00N 52°28' E 004°35'0 0.0
2017-May-25 14:29N 52°28' E 004°35'0 0.0
2017-May-25 13:29N 52°28' E 004°35'0 0.0
2017-May-25 12:53N 52°28' E 004°35'0 0.0
2017-May-25 12:29N 52°28' E 004°35'0 0.0
2017-May-25 11:59N 52°28' E 004°35'0 0.0
2017-May-25 11:29N 52°28' E 004°35'0 0.0
2017-May-25 10:59N 52°28' E 004°35'0 0.0
2017-May-25 10:29N 52°28' E 004°35'0 0.0
2017-May-25 09:59N 52°28' E 004°35'0 0.0
2017-May-25 09:29N 52°28' E 004°35'0 0.0
2017-May-25 08:59N 52°28' E 004°35'0 0.0
2017-May-25 08:29N 52°28' E 004°35'0 0.0
2017-May-25 07:59N 52°28' E 004°35'0 0.4
2017-May-25 07:31N 52°28' E 004°35'4 8.5
2017-May-25 07:01N 52°29' E 004°28'714.2
2017-May-25 06:30N 52°34' E 004°20'815.5
2017-May-25 06:00N 52°40' E 004°11'815.4
2017-May-25 05:30N 52°45' E 004°01'816.6
2017-May-25 05:00N 52°50' E 003°51'917.8
2017-May-25 04:30N 52°56' E 003°39'1117.7
2017-May-25 03:52N 53°03' E 003°25'917.2
2017-May-25 03:21N 53°09' E 003°14'11017.5
2017-May-24 21:04N 54°14' E 000°44'117.5
2017-May-24 21:00N 54°15' E 000°43'917.6
2017-May-24 20:30N 54°19' E 000°30'917.6
2017-May-24 20:00N 54°24' E 000°17'917.6
2017-May-24 19:31N 54°29' E 000°04'917.5
2017-May-24 19:00N 54°33' W 000°08'917.9
2017-May-24 18:30N 54°38' W 000°21'2918.2
2017-May-24 16:53N 54°54' W 001°04'718.5
2017-May-24 16:30N 54°58' W 001°15'714.0
2017-May-24 16:00N 55°00' W 001°26'1 2.2
2017-May-24 15:30N 54°59' W 001°27'0 0.0
2017-May-24 15:01N 54°59' W 001°27'0 0.0
2017-May-24 14:30N 54°59' W 001°27'0 0.0
2017-May-24 13:30N 54°59' W 001°27'0 0.0
2017-May-24 13:00N 54°59' W 001°27'0 0.0
2017-May-24 12:30N 54°59' W 001°27'0 0.0
2017-May-24 12:01N 54°59' W 001°27'0 0.0
2017-May-24 11:30N 54°59' W 001°27'0 0.0
2017-May-24 11:00N 54°59' W 001°27'0 0.0
2017-May-24 10:28N 54°59' W 001°27'0 0.0
2017-May-24 10:00N 54°59' W 001°27'0 0.0
2017-May-24 09:30N 54°59' W 001°27'0 0.0
2017-May-24 09:00N 54°59' W 001°27'0 0.0
2017-May-24 08:30N 54°59' W 001°27'0 0.2
2017-May-24 08:00N 54°60' W 001°27'4 8.5
2017-May-24 07:31N 55°00' W 001°20'714.8
2017-May-24 07:01N 54°56' W 001°09'714.5
2017-May-24 06:31N 54°53' W 000°58'816.5
2017-May-24 06:00N 54°48' W 000°45'1517.0
2017-May-24 05:07N 54°40' W 000°24'316.7
2017-May-24 04:56N 54°38' W 000°20'716.6
2017-May-24 04:30N 54°35' W 000°09'816.4
2017-May-24 04:00N 54°30' E 000°03'816.1
2017-May-24 03:30N 54°26' E 000°15'815.9
2017-May-24 03:00N 54°21' E 000°26'14318.3
2017-May-23 19:13N 52°57' E 003°40'618.8
2017-May-23 18:53N 52°53' E 003°48'718.7
2017-May-23 18:30N 52°49' E 003°57'917.8
2017-May-23 18:00N 52°41' E 004°06'814.8
2017-May-23 17:30N 52°36' E 004°16'713.9
2017-May-23 17:00N 52°32' E 004°24'713.6
2017-May-23 16:30N 52°28' E 004°33'1 2.7
2017-May-23 15:58N 52°28' E 004°35'0 0.0
2017-May-23 15:28N 52°28' E 004°35'0 0.0
2017-May-23 14:58N 52°28' E 004°35'0 0.0
2017-May-23 14:28N 52°28' E 004°35'0 0.0
2017-May-23 13:28N 52°28' E 004°35'0 0.0
2017-May-23 12:58N 52°28' E 004°35'0 0.0
2017-May-23 12:28N 52°28' E 004°35'0 0.0
2017-May-23 11:58N 52°28' E 004°35'0 0.0
2017-May-23 11:28N 52°28' E 004°35'0 0.0
2017-May-23 10:58N 52°28' E 004°35'0 0.0
2017-May-23 10:28N 52°28' E 004°35'0 0.0
2017-May-23 09:58N 52°28' E 004°35'0 0.0
2017-May-23 09:28N 52°28' E 004°35'0 0.0
2017-May-23 08:58N 52°28' E 004°35'0 0.0
2017-May-23 08:28N 52°28' E 004°35'0 0.0
2017-May-23 07:58N 52°28' E 004°35'0 0.1
2017-May-23 07:31N 52°28' E 004°35'4 8.4
2017-May-23 07:00N 52°29' E 004°29'714.0
2017-May-23 06:30N 52°34' E 004°20'714.1
2017-May-23 06:00N 52°39' E 004°12'815.4
2017-May-23 05:30N 52°44' E 004°02'917.4
2017-May-23 05:00N 52°49' E 003°51'14018.6
2017-May-22 21:28N 54°14' E 000°44'817.9
2017-May-22 21:00N 54°19' E 000°32'917.9
2017-May-22 20:30N 54°24' E 000°19'917.9
2017-May-22 20:00N 54°28' E 000°06'917.8
2017-May-22 19:30N 54°33' W 000°07'917.7
2017-May-22 19:00N 54°38' W 000°20'2317.5
2017-May-22 17:43N 54°50' W 000°53'316.0
2017-May-22 17:31N 54°52' W 000°58'816.5
2017-May-22 17:00N 54°56' W 001°10'816.4
2017-May-22 16:30N 55°01' W 001°22'3 4.4
2017-May-22 15:50N 54°59' W 001°27'0 0.0
2017-May-22 15:20N 54°59' W 001°27'0 0.0
2017-May-22 14:53N 54°59' W 001°27'0 0.0
2017-May-22 13:56N 54°59' W 001°27'0 0.0
2017-May-22 13:20N 54°59' W 001°27'0 0.0
2017-May-22 12:59N 54°59' W 001°27'0 0.0
2017-May-22 12:23N 54°59' W 001°27'0 0.0
2017-May-22 11:59N 54°59' W 001°27'0 0.0
2017-May-22 11:29N 54°59' W 001°27'0 0.0
2017-May-22 10:59N 54°59' W 001°27'0 0.0
2017-May-22 10:29N 54°59' W 001°27'0 0.0
2017-May-22 09:56N 54°59' W 001°27'0 0.0
2017-May-22 09:26N 54°59' W 001°27'0 0.0
2017-May-22 08:59N 54°59' W 001°27'0 0.0
2017-May-22 08:31N 54°59' W 001°27'0 0.1
2017-May-22 08:00N 54°59' W 001°27'4 8.6
2017-May-22 07:30N 55°00' W 001°20'714.8
2017-May-22 07:00N 54°56' W 001°09'612.7
2017-May-22 06:30N 54°53' W 000°60'714.0
2017-May-22 06:00N 54°49' W 000°49'1714.4
2017-May-22 04:47N 54°39' W 000°24'415.8
2017-May-22 04:30N 54°37' W 000°17'815.6
2017-May-22 04:00N 54°33' W 000°06'815.2
2017-May-22 03:30N 54°29' E 000°05'815.6
2017-May-22 03:00N 54°24' E 000°16'816.8
2017-May-22 02:31N 54°20' E 000°28'1016.6
2017-May-22 01:54N 54°14' E 000°43'916.6
2017-May-22 01:21N 54°09' E 000°56'11717.7
2017-May-21 18:46N 52°59' E 003°33'417.1
2017-May-21 18:30N 52°56' E 003°38'917.1
2017-May-21 18:00N 52°50' E 003°48'817.0
2017-May-21 17:30N 52°44' E 003°59'816.1
2017-May-21 17:00N 52°40' E 004°10'816.6
2017-May-21 16:30N 52°34' E 004°20'815.2
2017-May-21 16:00N 52°29' E 004°29'4 7.8
2017-May-21 15:30N 52°28' E 004°35'0 0.0
2017-May-21 15:00N 52°28' E 004°35'0 0.0
2017-May-21 14:28N 52°28' E 004°35'0 0.0
2017-May-21 13:28N 52°28' E 004°35'0 0.0
2017-May-21 12:58N 52°28' E 004°35'0 0.0
2017-May-21 12:28N 52°28' E 004°35'0 0.0
2017-May-21 11:58N 52°28' E 004°35'0 0.0
2017-May-21 11:28N 52°28' E 004°35'0 0.0
2017-May-21 10:58N 52°28' E 004°35'0 0.0
2017-May-21 10:28N 52°28' E 004°35'0 0.0
2017-May-21 09:58N 52°28' E 004°35'0 0.0
2017-May-21 09:28N 52°28' E 004°35'0 0.0
2017-May-21 08:58N 52°28' E 004°35'0 0.0
2017-May-21 08:28N 52°28' E 004°35'0 0.0
2017-May-21 07:58N 52°28' E 004°35'0 0.2
2017-May-21 07:30N 52°28' E 004°35'5 9.9
2017-May-21 07:00N 52°30' E 004°28'713.9
2017-May-21 06:30N 52°35' E 004°19'714.2
2017-May-21 06:00N 52°39' E 004°10'917.4
2017-May-21 05:30N 52°44' E 003°59'917.7
2017-May-21 05:00N 52°50' E 003°47'13617.7
2017-May-20 21:17N 54°13' E 000°46'517.2
2017-May-20 21:00N 54°16' E 000°39'917.3
2017-May-20 20:30N 54°20' E 000°26'917.4
2017-May-20 20:00N 54°25' E 000°13'817.0
2017-May-20 19:30N 54°30' E 000°02'917.2
2017-May-20 19:00N 54°35' W 000°11'917.2
2017-May-20 18:30N 54°39' W 000°23'2117.2
2017-May-20 17:16N 54°51' W 000°55'517.5
2017-May-20 16:59N 54°54' W 001°02'817.5
2017-May-20 16:30N 54°58' W 001°14'714.7
2017-May-20 16:00N 55°00' W 001°26'1 1.9
2017-May-20 15:30N 54°59' W 001°27'0 0.0
2017-May-20 14:59N 54°59' W 001°27'0 0.0
2017-May-20 14:28N 54°59' W 001°27'0 0.0
2017-May-20 11:42N 54°59' W 001°27'0 0.0
2017-May-20 11:20N 54°59' W 001°27'0 0.0
2017-May-20 11:00N 54°59' W 001°27'0 0.0
2017-May-20 10:24N 54°59' W 001°27'0 0.0
2017-May-20 10:01N 54°59' W 001°27'0 0.0
2017-May-20 09:30N 54°59' W 001°27'0 0.0
2017-May-20 08:10N 54°59' W 001°27'0 0.6
2017-May-20 08:00N 54°60' W 001°27'4 8.6
2017-May-20 07:30N 55°00' W 001°20'1116.5
2017-May-20 06:52N 54°55' W 001°04'2817.6
2017-May-20 05:17N 54°39' W 000°24'517.6
2017-May-20 05:00N 54°37' W 000°17'917.7
2017-May-20 04:30N 54°32' W 000°03'917.6
2017-May-20 04:00N 54°27' E 000°09'917.5
2017-May-20 03:30N 54°23' E 000°22'917.3
2017-May-20 03:00N 54°18' E 000°34'14616.8
2017-May-19 18:19N 52°51' E 003°52'618.8
2017-May-19 18:00N 52°46' E 003°58'918.7
2017-May-19 17:30N 52°40' E 004°09'918.6
2017-May-19 17:00N 52°34' E 004°21'917.8
2017-May-19 16:30N 52°28' E 004°32'2 3.9
2017-May-19 16:00N 52°28' E 004°35'0 0.0
2017-May-19 15:30N 52°28' E 004°35'0 0.0
2017-May-19 15:01N 52°28' E 004°35'0 0.0
2017-May-19 14:01N 52°28' E 004°35'0 0.0
2017-May-19 13:31N 52°28' E 004°35'0 0.0
2017-May-19 13:00N 52°28' E 004°35'0 0.0
2017-May-19 12:31N 52°28' E 004°35'0 0.0
2017-May-19 12:00N 52°28' E 004°35'0 0.0
2017-May-19 11:31N 52°28' E 004°35'0 0.0
2017-May-19 11:00N 52°28' E 004°35'  
Track history (hours):
 
Tides and Currents Weather Stations Pressure Air Temp Water Temp Dewpoint Dewpoint Depression Visibility Wind Speed Wind Dir Waves Ship Positions

King of Scandinavia

Ship's website: http://www.dfds.co.uk/DSW/EN/OnBoard/na/KING.htm

Last reported at 2017-May-29 10:58 UTC. Time now 2017-May-29 11:17 UTC.
Position N 52°28' E 004°35'.

Length 166 m; beam 27.6 m; draft 6.2 m.

Type: Ship. MMSI: 220449000.

Date/timePositionNaut miles runAvg speedWind from/ knotsBaromVisibWave heightAir tempDewpointWater temp
2017-May-29 10:58N 52°28' E 004°35'0 0.0
2017-May-29 10:28N 52°28' E 004°35'0 0.0
2017-May-29 09:58N 52°28' E 004°35'0 0.0
2017-May-29 09:28N 52°28' E 004°35'0 0.0
2017-May-29 08:58N 52°28' E 004°35'0 0.0
2017-May-29 08:28N 52°28' E 004°35'0 0.0
2017-May-29 07:58N 52°28' E 004°35'0 0.4
2017-May-29 07:30N 52°28' E 004°35'5 9.1
2017-May-29 07:01N 52°29' E 004°28'815.8
2017-May-29 06:31N 52°35' E 004°19'816.0
2017-May-29 06:00N 52°41' E 004°10'816.3
2017-May-29 05:30N 52°46' E 003°60'916.4
2017-May-29 04:59N 52°52' E 003°49'1016.8
2017-May-29 04:25N 52°58' E 003°37'716.7
2017-May-29 03:59N 53°02' E 003°27'816.6
2017-May-29 03:30N 53°07' E 003°17'917.4
2017-May-29 03:00N 53°13' E 003°06'10717.3
2017-May-28 20:48N 54°16' E 000°39'518.3
2017-May-28 20:30N 54°19' E 000°31'918.5
2017-May-28 20:01N 54°23' E 000°18'918.6
2017-May-28 19:30N 54°28' E 000°04'1020.1
2017-May-28 19:00N 54°33' W 000°11'1020.6
2017-May-28 18:31N 54°39' W 000°25'2520.2
2017-May-28 17:15N 54°53' W 001°02'519.5
2017-May-28 17:00N 54°56' W 001°09'1019.5
2017-May-28 16:31N 55°01' W 001°23'2 4.9
2017-May-28 16:00N 54°59' W 001°27'0 0.0
2017-May-28 15:30N 54°59' W 001°27'0 0.0
2017-May-28 15:01N 54°59' W 001°27'0 0.0
2017-May-28 14:00N 54°59' W 001°27'0 0.0
2017-May-28 13:30N 54°59' W 001°27'0 0.0
2017-May-28 13:00N 54°59' W 001°27'0 0.0
2017-May-28 12:28N 54°59' W 001°27'0 0.0
2017-May-28 11:58N 54°59' W 001°27'0 0.0
2017-May-28 11:28N 54°59' W 001°27'0 0.0
2017-May-28 11:00N 54°59' W 001°27'0 0.0
2017-May-28 10:21N 54°59' W 001°27'0 0.0
2017-May-28 09:54N 54°59' W 001°27'0 0.0
2017-May-28 09:24N 54°59' W 001°27'0 0.0
2017-May-28 08:54N 54°59' W 001°27'0 0.0
2017-May-28 08:25N 54°59' W 001°27'0 0.1
2017-May-28 08:00N 54°59' W 001°27'510.0
2017-May-28 07:31N 54°60' W 001°18'918.2
2017-May-28 07:00N 54°55' W 001°04'3117.2
2017-May-28 05:13N 54°38' W 000°20'315.4
2017-May-28 05:01N 54°37' W 000°15'714.7
2017-May-28 04:30N 54°32' W 000°05'815.8
2017-May-28 04:00N 54°28' E 000°06'816.0
2017-May-28 03:31N 54°24' E 000°18'714.3
2017-May-28 03:00N 54°20' E 000°29'12916.4
2017-May-27 19:09N 53°04' E 003°24'214.2
2017-May-27 18:59N 53°03' E 003°26'714.5
2017-May-27 18:30N 52°58' E 003°35'714.9
2017-May-27 18:00N 52°53' E 003°44'815.1
2017-May-27 17:30N 52°48' E 003°54'714.8
2017-May-27 17:00N 52°43' E 004°03'714.8
2017-May-27 16:30N 52°39' E 004°13'715.0
2017-May-27 16:00N 52°34' E 004°22'815.1
2017-May-27 15:30N 52°28' E 004°31'3 5.0
2017-May-27 15:01N 52°28' E 004°35'0 0.0
2017-May-27 13:59N 52°28' E 004°35'0 0.0
2017-May-27 13:29N 52°28' E 004°35'0 0.0
2017-May-27 12:59N 52°28' E 004°35'0 0.0
2017-May-27 12:29N 52°28' E 004°35'0 0.0
2017-May-27 11:59N 52°28' E 004°35'0 0.0
2017-May-27 11:29N 52°28' E 004°35'0 0.0
2017-May-27 10:59N 52°28' E 004°35'0 0.0
2017-May-27 10:29N 52°28' E 004°35'0 0.0
2017-May-27 09:59N 52°28' E 004°35'0 0.0
2017-May-27 09:26N 52°28' E 004°35'0 0.0
2017-May-27 08:59N 52°28' E 004°35'0 0.0
2017-May-27 08:29N 52°28' E 004°35'0 0.0
2017-May-27 07:59N 52°28' E 004°35'0 0.5
2017-May-27 07:30N 52°28' E 004°35'714.6
2017-May-27 07:00N 52°32' E 004°25'918.1
2017-May-27 06:30N 52°38' E 004°14'918.4
2017-May-27 06:00N 52°43' E 004°01'918.2
2017-May-27 05:30N 52°49' E 003°51'918.2
2017-May-27 05:00N 52°55' E 003°39'918.0
2017-May-27 04:29N 53°01' E 003°27'5517.2
2017-May-27 01:17N 53°38' E 002°18'4717.0
2017-May-26 22:32N 54°04' E 001°12'117.4
2017-May-26 22:30N 54°04' E 001°11'917.5
2017-May-26 22:00N 54°09' E 000°59'917.7
2017-May-26 21:30N 54°14' E 000°46'917.9
2017-May-26 21:00N 54°19' E 000°33'918.0
2017-May-26 20:30N 54°23' E 000°20'918.3
2017-May-26 20:00N 54°28' E 000°06'918.4
2017-May-26 19:30N 54°33' W 000°07'918.8
2017-May-26 19:00N 54°38' W 000°21'3019.2
2017-May-26 17:28N 54°54' W 001°04'919.2
2017-May-26 17:01N 54°58' W 001°17'611.6
2017-May-26 16:30N 54°60' W 001°27'0 0.2
2017-May-26 16:00N 54°59' W 001°27'0 0.0
2017-May-26 15:29N 54°59' W 001°27'0 0.0
2017-May-26 14:47N 54°59' W 001°27'0 0.0
2017-May-26 14:30N 54°59' W 001°27'0 0.0
2017-May-26 13:29N 54°59' W 001°27'0 0.0
2017-May-26 12:59N 54°59' W 001°27'0 0.0
2017-May-26 12:23N 54°59' W 001°27'0 0.0
2017-May-26 11:59N 54°59' W 001°27'0 0.0
2017-May-26 11:29N 54°59' W 001°27'0 0.0
2017-May-26 10:59N 54°59' W 001°27'0 0.0
2017-May-26 10:29N 54°59' W 001°27'0 0.0
2017-May-26 09:59N 54°59' W 001°27'0 0.0
2017-May-26 09:29N 54°59' W 001°27'0 0.0
2017-May-26 09:01N 54°59' W 001°27'0 0.0
2017-May-26 08:30N 54°59' W 001°27'1 1.0
2017-May-26 08:00N 54°60' W 001°27'4 8.7
2017-May-26 07:31N 55°00' W 001°19'713.3
2017-May-26 07:01N 54°56' W 001°10'917.3
2017-May-26 06:30N 54°51' W 000°57'917.9
2017-May-26 06:00N 54°47' W 000°44'1916.8
2017-May-26 04:52N 54°37' W 000°16'614.7
2017-May-26 04:27N 54°34' W 000°07'613.6
2017-May-26 04:01N 54°30' E 000°02'713.7
2017-May-26 03:30N 54°26' E 000°12'713.9
2017-May-26 03:00N 54°22' E 000°21'814.3
2017-May-26 02:28N 54°18' E 000°33'714.7
2017-May-26 02:00N 54°14' E 000°42'14017.1
2017-May-25 17:50N 52°52' E 003°52'516.8
2017-May-25 17:30N 52°49' E 003°59'917.4
2017-May-25 17:00N 52°42' E 004°08'917.5
2017-May-25 16:30N 52°36' E 004°19'917.3
2017-May-25 16:00N 52°30' E 004°29'4 8.5
2017-May-25 15:30N 52°28' E 004°35'0 0.0
2017-May-25 15:00N 52°28' E 004°35'0 0.0
2017-May-25 14:29N 52°28' E 004°35'0 0.0
2017-May-25 13:29N 52°28' E 004°35'0 0.0
2017-May-25 12:53N 52°28' E 004°35'0 0.0
2017-May-25 12:29N 52°28' E 004°35'0 0.0
2017-May-25 11:59N 52°28' E 004°35'0 0.0
2017-May-25 11:29N 52°28' E 004°35'0 0.0
2017-May-25 10:59N 52°28' E 004°35'0 0.0
2017-May-25 10:29N 52°28' E 004°35'0 0.0
2017-May-25 09:59N 52°28' E 004°35'0 0.0
2017-May-25 09:29N 52°28' E 004°35'0 0.0
2017-May-25 08:59N 52°28' E 004°35'0 0.0
2017-May-25 08:29N 52°28' E 004°35'0 0.0
2017-May-25 07:59N 52°28' E 004°35'0 0.4
2017-May-25 07:31N 52°28' E 004°35'4 8.5
2017-May-25 07:01N 52°29' E 004°28'714.2
2017-May-25 06:30N 52°34' E 004°20'815.5
2017-May-25 06:00N 52°40' E 004°11'815.4
2017-May-25 05:30N 52°45' E 004°01'816.6
2017-May-25 05:00N 52°50' E 003°51'917.8
2017-May-25 04:30N 52°56' E 003°39'1117.7
2017-May-25 03:52N 53°03' E 003°25'917.2
2017-May-25 03:21N 53°09' E 003°14'11017.5
2017-May-24 21:04N 54°14' E 000°44'117.5
2017-May-24 21:00N 54°15' E 000°43'917.6
2017-May-24 20:30N 54°19' E 000°30'917.6
2017-May-24 20:00N 54°24' E 000°17'917.6
2017-May-24 19:31N 54°29' E 000°04'917.5
2017-May-24 19:00N 54°33' W 000°08'917.9
2017-May-24 18:30N 54°38' W 000°21'2918.2
2017-May-24 16:53N 54°54' W 001°04'718.5
2017-May-24 16:30N 54°58' W 001°15'714.0
2017-May-24 16:00N 55°00' W 001°26'1 2.2
2017-May-24 15:30N 54°59' W 001°27'0 0.0
2017-May-24 15:01N 54°59' W 001°27'0 0.0
2017-May-24 14:30N 54°59' W 001°27'0 0.0
2017-May-24 13:30N 54°59' W 001°27'0 0.0
2017-May-24 13:00N 54°59' W 001°27'0 0.0
2017-May-24 12:30N 54°59' W 001°27'0 0.0
2017-May-24 12:01N 54°59' W 001°27'0 0.0
2017-May-24 11:30N 54°59' W 001°27'0 0.0
2017-May-24 11:00N 54°59' W 001°27'0 0.0
2017-May-24 10:28N 54°59' W 001°27'0 0.0
2017-May-24 10:00N 54°59' W 001°27'0 0.0
2017-May-24 09:30N 54°59' W 001°27'0 0.0
2017-May-24 09:00N 54°59' W 001°27'0 0.0
2017-May-24 08:30N 54°59' W 001°27'0 0.2
2017-May-24 08:00N 54°60' W 001°27'4 8.5
2017-May-24 07:31N 55°00' W 001°20'714.8
2017-May-24 07:01N 54°56' W 001°09'714.5
2017-May-24 06:31N 54°53' W 000°58'816.5
2017-May-24 06:00N 54°48' W 000°45'1517.0
2017-May-24 05:07N 54°40' W 000°24'316.7
2017-May-24 04:56N 54°38' W 000°20'716.6
2017-May-24 04:30N 54°35' W 000°09'816.4
2017-May-24 04:00N 54°30' E 000°03'816.1
2017-May-24 03:30N 54°26' E 000°15'815.9
2017-May-24 03:00N 54°21' E 000°26'14318.3
2017-May-23 19:13N 52°57' E 003°40'618.8
2017-May-23 18:53N 52°53' E 003°48'718.7
2017-May-23 18:30N 52°49' E 003°57'917.8
2017-May-23 18:00N 52°41' E 004°06'814.8
2017-May-23 17:30N 52°36' E 004°16'713.9
2017-May-23 17:00N 52°32' E 004°24'713.6
2017-May-23 16:30N 52°28' E 004°33'1 2.7
2017-May-23 15:58N 52°28' E 004°35'0 0.0
2017-May-23 15:28N 52°28' E 004°35'0 0.0
2017-May-23 14:58N 52°28' E 004°35'0 0.0
2017-May-23 14:28N 52°28' E 004°35'0 0.0
2017-May-23 13:28N 52°28' E 004°35'0 0.0
2017-May-23 12:58N 52°28' E 004°35'0 0.0
2017-May-23 12:28N 52°28' E 004°35'0 0.0
2017-May-23 11:58N 52°28' E 004°35'0 0.0
2017-May-23 11:28N 52°28' E 004°35'0 0.0
2017-May-23 10:58N 52°28' E 004°35'0 0.0
2017-May-23 10:28N 52°28' E 004°35'0 0.0
2017-May-23 09:58N 52°28' E 004°35'0 0.0
2017-May-23 09:28N 52°28' E 004°35'0 0.0
2017-May-23 08:58N 52°28' E 004°35'0 0.0
2017-May-23 08:28N 52°28' E 004°35'0 0.0
2017-May-23 07:58N 52°28' E 004°35'0 0.1
2017-May-23 07:31N 52°28' E 004°35'4 8.4
2017-May-23 07:00N 52°29' E 004°29'714.0
2017-May-23 06:30N 52°34' E 004°20'714.1
2017-May-23 06:00N 52°39' E 004°12'815.4
2017-May-23 05:30N 52°44' E 004°02'917.4
2017-May-23 05:00N 52°49' E 003°51'14018.6
2017-May-22 21:28N 54°14' E 000°44'817.9
2017-May-22 21:00N 54°19' E 000°32'917.9
2017-May-22 20:30N 54°24' E 000°19'917.9
2017-May-22 20:00N 54°28' E 000°06'917.8
2017-May-22 19:30N 54°33' W 000°07'917.7
2017-May-22 19:00N 54°38' W 000°20'2317.5
2017-May-22 17:43N 54°50' W 000°53'316.0
2017-May-22 17:31N 54°52' W 000°58'816.5
2017-May-22 17:00N 54°56' W 001°10'816.4
2017-May-22 16:30N 55°01' W 001°22'3 4.4
2017-May-22 15:50N 54°59' W 001°27'0 0.0
2017-May-22 15:20N 54°59' W 001°27'0 0.0
2017-May-22 14:53N 54°59' W 001°27'0 0.0
2017-May-22 13:56N 54°59' W 001°27'0 0.0
2017-May-22 13:20N 54°59' W 001°27'0 0.0
2017-May-22 12:59N 54°59' W 001°27'0 0.0
2017-May-22 12:23N 54°59' W 001°27'0 0.0
2017-May-22 11:59N 54°59' W 001°27'0 0.0
2017-May-22 11:29N 54°59' W 001°27'0 0.0
2017-May-22 10:59N 54°59' W 001°27'0 0.0
2017-May-22 10:29N 54°59' W 001°27'0 0.0
2017-May-22 09:56N 54°59' W 001°27'0 0.0
2017-May-22 09:26N 54°59' W 001°27'0 0.0
2017-May-22 08:59N 54°59' W 001°27'0 0.0
2017-May-22 08:31N 54°59' W 001°27'0 0.1
2017-May-22 08:00N 54°59' W 001°27'4 8.6
2017-May-22 07:30N 55°00' W 001°20'714.8
2017-May-22 07:00N 54°56' W 001°09'612.7
2017-May-22 06:30N 54°53' W 000°60'714.0
2017-May-22 06:00N 54°49' W 000°49'1714.4
2017-May-22 04:47N 54°39' W 000°24'415.8
2017-May-22 04:30N 54°37' W 000°17'815.6
2017-May-22 04:00N 54°33' W 000°06'815.2
2017-May-22 03:30N 54°29' E 000°05'815.6
2017-May-22 03:00N 54°24' E 000°16'816.8
2017-May-22 02:31N 54°20' E 000°28'1016.6
2017-May-22 01:54N 54°14' E 000°43'916.6
2017-May-22 01:21N 54°09' E 000°56'11717.7
2017-May-21 18:46N 52°59' E 003°33'417.1
2017-May-21 18:30N 52°56' E 003°38'917.1
2017-May-21 18:00N 52°50' E 003°48'817.0
2017-May-21 17:30N 52°44' E 003°59'816.1
2017-May-21 17:00N 52°40' E 004°10'816.6
2017-May-21 16:30N 52°34' E 004°20'815.2
2017-May-21 16:00N 52°29' E 004°29'4 7.8
2017-May-21 15:30N 52°28' E 004°35'0 0.0
2017-May-21 15:00N 52°28' E 004°35'0 0.0
2017-May-21 14:28N 52°28' E 004°35'0 0.0
2017-May-21 13:28N 52°28' E 004°35'0 0.0
2017-May-21 12:58N 52°28' E 004°35'0 0.0
2017-May-21 12:28N 52°28' E 004°35'0 0.0
2017-May-21 11:58N 52°28' E 004°35'0 0.0
2017-May-21 11:28N 52°28' E 004°35'0 0.0
2017-May-21 10:58N 52°28' E 004°35'0 0.0
2017-May-21 10:28N 52°28' E 004°35'0 0.0
2017-May-21 09:58N 52°28' E 004°35'0 0.0
2017-May-21 09:28N 52°28' E 004°35'0 0.0
2017-May-21 08:58N 52°28' E 004°35'0 0.0
2017-May-21 08:28N 52°28' E 004°35'0 0.0
2017-May-21 07:58N 52°28' E 004°35'0 0.2
2017-May-21 07:30N 52°28' E 004°35'5 9.9
2017-May-21 07:00N 52°30' E 004°28'713.9
2017-May-21 06:30N 52°35' E 004°19'714.2
2017-May-21 06:00N 52°39' E 004°10'917.4
2017-May-21 05:30N 52°44' E 003°59'917.7
2017-May-21 05:00N 52°50' E 003°47'13617.7
2017-May-20 21:17N 54°13' E 000°46'517.2
2017-May-20 21:00N 54°16' E 000°39'917.3
2017-May-20 20:30N 54°20' E 000°26'917.4
2017-May-20 20:00N 54°25' E 000°13'817.0
2017-May-20 19:30N 54°30' E 000°02'917.2
2017-May-20 19:00N 54°35' W 000°11'917.2
2017-May-20 18:30N 54°39' W 000°23'2117.2
2017-May-20 17:16N 54°51' W 000°55'517.5
2017-May-20 16:59N 54°54' W 001°02'817.5
2017-May-20 16:30N 54°58' W 001°14'714.7
2017-May-20 16:00N 55°00' W 001°26'1 1.9
2017-May-20 15:30N 54°59' W 001°27'0 0.0
2017-May-20 14:59N 54°59' W 001°27'0 0.0
2017-May-20 14:28N 54°59' W 001°27'0 0.0
2017-May-20 11:42N 54°59' W 001°27'0 0.0
2017-May-20 11:20N 54°59' W 001°27'0 0.0
2017-May-20 11:00N 54°59' W 001°27'0 0.0
2017-May-20 10:24N 54°59' W 001°27'0 0.0
2017-May-20 10:01N 54°59' W 001°27'0 0.0
2017-May-20 09:30N 54°59' W 001°27'0 0.0
2017-May-20 08:10N 54°59' W 001°27'0 0.6
2017-May-20 08:00N 54°60' W 001°27'4 8.6
2017-May-20 07:30N 55°00' W 001°20'1116.5
2017-May-20 06:52N 54°55' W 001°04'2817.6
2017-May-20 05:17N 54°39' W 000°24'517.6
2017-May-20 05:00N 54°37' W 000°17'917.7
2017-May-20 04:30N 54°32' W 000°03'917.6
2017-May-20 04:00N 54°27' E 000°09'917.5
2017-May-20 03:30N 54°23' E 000°22'917.3
2017-May-20 03:00N 54°18' E 000°34'14616.8
2017-May-19 18:19N 52°51' E 003°52'618.8
2017-May-19 18:00N 52°46' E 003°58'918.7
2017-May-19 17:30N 52°40' E 004°09'918.6
2017-May-19 17:00N 52°34' E 004°21'917.8
2017-May-19 16:30N 52°28' E 004°32'2 3.9
2017-May-19 16:00N 52°28' E 004°35'0 0.0
2017-May-19 15:30N 52°28' E 004°35'0 0.0
2017-May-19 15:01N 52°28' E 004°35'0 0.0
2017-May-19 14:01N 52°28' E 004°35'0 0.0
2017-May-19 13:31N 52°28' E 004°35'0 0.0
2017-May-19 13:00N 52°28' E 004°35'0 0.0
2017-May-19 12:31N 52°28' E 004°35'0 0.0
2017-May-19 12:00N 52°28' E 004°35'0 0.0
2017-May-19 11:31N 52°28' E 004°35'0 0.0
2017-May-19 11:00N 52°28' E 004°35'  

Dump ship's entire track history